New Orleans, LA (70115)

1:37 AM CST on March 04, 2015 (GMT -0600)
Prytania St Uptown | Change Station
CLOSE
Current Station
Personal Weather Station
Location: New Orleans, LA
Elevation: 29 ft
Nearby Weather Stations
Active Advisory: Dense Fog Advisory

Elev 29 ft 29.92 °N, 90.11 °W | Updated 31 seconds ago

Mostly Cloudy
Mostly Cloudy
60.6 °F
Feels Like 60.6 °F
N
0.0
Wind Variable Wind from NE
Gusts 0.0 mph

Today
High -- | Low -- °F
--% Chance of Precip.
Yesterday
High -- | Low -- °F
Precip. -- in
6:23 AM 6:01 PM
Waxing Gibbous, 98% visible
Pressure 29.99 in
Visibility 10.0 miles
Clouds Clear
Dew Point 60 °F
Humidity 97%
Rainfall 0.00 in
Snow Depth Not available.
UV 0.0 out of 12
Pollen 10.10 out of 12
Air Quality Not available.
Flu Activity Not available.
METAR KNBG 040655Z AUTO 14006KT 10SM CLR 20/18 A2999 RMK AO2 SLP154 T02000183 $

More Conditions Fewer Conditions

Pressure 29.99 in
Visibility 10.0 miles
Clouds Clear
Dew Point 60 °F
Humidity 97%
Rainfall 0.00 in
Snow Depth Not available.
UV 0.0 out of 12
Pollen 10.10 out of 12
Air Quality Not available.
Flu Activity Not available.
METAR KNBG 040655Z AUTO 14006KT 10SM CLR 20/18 A2999 RMK AO2 SLP154 T02000183 $

More Conditions Fewer Conditions

10-Day Weather Forecast

Almanac

Astronomy

Mar. 04, 2015 Rise Set
Actual Time
Civil Twilight
Nautical Twilight
Astronomical Twilight
Moon
Length of Visible Light
Length of Day
Tomorrow will be .
, % of the Moon is Illuminated

Today's Extremes

State Highs State Lows

Community

WunderPhotos

Upload Photos

1,802,402 photos uploaded!

WunderBlogs® & News

Nearby

Air Quality

  Air Quality AQ Index Pollutant
Not available.

Snow Depth

Station Depth Elevation

Earthquake Activity

City Distance Mag. Time & Date
Minimum magnitude displayed is 2.5.

Coastal Water Temperatures

Place Temperature

Nearby Weather Stations

Dense Fog Advisory
Statement as of 9:32 PM CST on March 03, 2015

... Dense fog advisory remains in effect until 9 am CST
Wednesday...

* visibility... one quarter mile or less at times.

* Duration... tonight through mid morning Wednesday.

* Impacts... reduced visibilities on area roadways could cause
hazardous driving conditions through Wednesday morning.

Precautionary/preparedness actions...

A dense fog advisory means visibilities will frequently be
reduced to less than one quarter mile. If driving... slow down...
use your headlights... and leave plenty of distance ahead of you.